sensor_id;sensor_type;location;lat;lon;timestamp;temperature;humidity
66312;HTU21D;53114;51.138;6.008;2023-03-14T00:01:12;11.41;118.99
66312;HTU21D;53114;51.138;6.008;2023-03-14T00:03:38;11.32;118.99
66312;HTU21D;53114;51.138;6.008;2023-03-14T00:06:05;11.28;118.99
66312;HTU21D;53114;51.138;6.008;2023-03-14T00:08:31;11.20;118.99
66312;HTU21D;53114;51.138;6.008;2023-03-14T00:10:58;11.13;118.99
66312;HTU21D;53114;51.138;6.008;2023-03-14T00:13:29;11.14;118.99
66312;HTU21D;53114;51.138;6.008;2023-03-14T00:15:55;11.10;118.99
66312;HTU21D;53114;51.138;6.008;2023-03-14T00:18:26;11.11;118.99
66312;HTU21D;53114;51.138;6.008;2023-03-14T00:20:53;11.07;118.99
66312;HTU21D;53114;51.138;6.008;2023-03-14T00:23:19;10.94;118.99
66312;HTU21D;53114;51.138;6.008;2023-03-14T00:25:45;10.86;118.99
66312;HTU21D;53114;51.138;6.008;2023-03-14T00:28:11;10.84;118.99
66312;HTU21D;53114;51.138;6.008;2023-03-14T00:30:39;10.90;118.99
66312;HTU21D;53114;51.138;6.008;2023-03-14T00:33:05;10.88;118.99
66312;HTU21D;53114;51.138;6.008;2023-03-14T00:35:35;10.97;118.99
66312;HTU21D;53114;51.138;6.008;2023-03-14T00:38:01;11.01;118.99
66312;HTU21D;53114;51.138;6.008;2023-03-14T00:40:27;11.05;118.99
66312;HTU21D;53114;51.138;6.008;2023-03-14T00:42:54;11.00;118.99
66312;HTU21D;53114;51.138;6.008;2023-03-14T00:45:20;10.97;118.99
66312;HTU21D;53114;51.138;6.008;2023-03-14T00:47:46;11.01;118.99
66312;HTU21D;53114;51.138;6.008;2023-03-14T00:50:12;11.00;118.99
66312;HTU21D;53114;51.138;6.008;2023-03-14T00:52:38;11.07;118.99
66312;HTU21D;53114;51.138;6.008;2023-03-14T00:55:05;11.02;118.99
66312;HTU21D;53114;51.138;6.008;2023-03-14T00:57:32;11.11;118.99
66312;HTU21D;53114;51.138;6.008;2023-03-14T00:59:58;11.19;118.99
66312;HTU21D;53114;51.138;6.008;2023-03-14T01:02:24;11.15;118.99
66312;HTU21D;53114;51.138;6.008;2023-03-14T01:04:50;11.20;118.99
66312;HTU21D;53114;51.138;6.008;2023-03-14T01:07:18;11.27;118.99
66312;HTU21D;53114;51.138;6.008;2023-03-14T01:09:44;11.34;118.99
66312;HTU21D;53114;51.138;6.008;2023-03-14T01:12:10;11.32;118.99
66312;HTU21D;53114;51.138;6.008;2023-03-14T01:14:36;11.38;118.99
66312;HTU21D;53114;51.138;6.008;2023-03-14T01:17:03;11.34;118.99
66312;HTU21D;53114;51.138;6.008;2023-03-14T01:19:29;11.30;118.99
66312;HTU21D;53114;51.138;6.008;2023-03-14T01:21:55;11.22;118.99
66312;HTU21D;53114;51.138;6.008;2023-03-14T01:24:21;11.10;118.99
66312;HTU21D;53114;51.138;6.008;2023-03-14T01:26:47;11.04;118.99
66312;HTU21D;53114;51.138;6.008;2023-03-14T01:29:13;11.01;118.99
66312;HTU21D;53114;51.138;6.008;2023-03-14T01:31:40;11.02;118.99
66312;HTU21D;53114;51.138;6.008;2023-03-14T01:34:06;11.04;118.99
66312;HTU21D;53114;51.138;6.008;2023-03-14T01:36:32;11.07;118.99
66312;HTU21D;53114;51.138;6.008;2023-03-14T01:39:01;11.12;118.99
66312;HTU21D;53114;51.138;6.008;2023-03-14T01:41:27;11.11;118.99
66312;HTU21D;53114;51.138;6.008;2023-03-14T01:43:56;11.10;118.99
66312;HTU21D;53114;51.138;6.008;2023-03-14T01:46:33;11.07;118.99
66312;HTU21D;53114;51.138;6.008;2023-03-14T01:49:16;11.08;118.99
66312;HTU21D;53114;51.138;6.008;2023-03-14T01:51:58;11.07;118.99
66312;HTU21D;53114;51.138;6.008;2023-03-14T01:54:36;11.10;118.99
66312;HTU21D;53114;51.138;6.008;2023-03-14T01:57:05;11.03;118.99
66312;HTU21D;53114;51.138;6.008;2023-03-14T01:59:34;10.86;118.99
66312;HTU21D;53114;51.138;6.008;2023-03-14T02:02:02;10.94;118.99
66312;HTU21D;53114;51.138;6.008;2023-03-14T02:04:34;10.89;118.99
66312;HTU21D;53114;51.138;6.008;2023-03-14T02:09:43;10.96;118.99
66312;HTU21D;53114;51.138;6.008;2023-03-14T02:12:16;10.96;118.99
66312;HTU21D;53114;51.138;6.008;2023-03-14T02:14:50;10.94;118.99
66312;HTU21D;53114;51.138;6.008;2023-03-14T02:17:24;10.95;118.99
66312;HTU21D;53114;51.138;6.008;2023-03-14T02:22:56;11.04;118.99
66312;HTU21D;53114;51.138;6.008;2023-03-14T02:28:07;10.99;118.99
66312;HTU21D;53114;51.138;6.008;2023-03-14T02:30:34;10.99;118.99
66312;HTU21D;53114;51.138;6.008;2023-03-14T02:33:11;11.09;118.99
66312;HTU21D;53114;51.138;6.008;2023-03-14T02:35:52;11.10;118.99
66312;HTU21D;53114;51.138;6.008;2023-03-14T02:38:32;11.07;118.99
66312;HTU21D;53114;51.138;6.008;2023-03-14T02:41:01;11.08;118.99
66312;HTU21D;53114;51.138;6.008;2023-03-14T02:43:31;11.25;118.99
66312;HTU21D;53114;51.138;6.008;2023-03-14T02:46:01;11.32;118.99
66312;HTU21D;53114;51.138;6.008;2023-03-14T02:48:44;11.39;118.99
66312;HTU21D;53114;51.138;6.008;2023-03-14T02:51:12;11.46;118.99
66312;HTU21D;53114;51.138;6.008;2023-03-14T02:53:39;11.46;118.99
66312;HTU21D;53114;51.138;6.008;2023-03-14T02:56:10;11.46;118.99
66312;HTU21D;53114;51.138;6.008;2023-03-14T02:58:37;11.48;118.99
66312;HTU21D;53114;51.138;6.008;2023-03-14T03:01:17;11.37;118.99
66312;HTU21D;53114;51.138;6.008;2023-03-14T03:03:43;11.30;118.99
66312;HTU21D;53114;51.138;6.008;2023-03-14T03:06:09;11.28;118.99
66312;HTU21D;53114;51.138;6.008;2023-03-14T03:08:36;11.29;118.99
66312;HTU21D;53114;51.138;6.008;2023-03-14T03:11:03;11.16;118.99
66312;HTU21D;53114;51.138;6.008;2023-03-14T03:13:31;11.09;118.99
66312;HTU21D;53114;51.138;6.008;2023-03-14T03:16:00;11.00;118.99
66312;HTU21D;53114;51.138;6.008;2023-03-14T03:18:26;10.95;118.99
66312;HTU21D;53114;51.138;6.008;2023-03-14T03:20:52;10.73;118.99
66312;HTU21D;53114;51.138;6.008;2023-03-14T03:23:18;10.38;118.99
66312;HTU21D;53114;51.138;6.008;2023-03-14T03:25:51;10.21;118.99
66312;HTU21D;53114;51.138;6.008;2023-03-14T03:28:18;10.14;118.99
66312;HTU21D;53114;51.138;6.008;2023-03-14T03:30:45;10.11;118.99
66312;HTU21D;53114;51.138;6.008;2023-03-14T03:33:12;10.08;118.99
66312;HTU21D;53114;51.138;6.008;2023-03-14T03:35:45;10.01;118.99
66312;HTU21D;53114;51.138;6.008;2023-03-14T03:38:13;9.91;118.99
66312;HTU21D;53114;51.138;6.008;2023-03-14T03:40:40;9.88;118.99
66312;HTU21D;53114;51.138;6.008;2023-03-14T03:43:07;9.83;118.99
66312;HTU21D;53114;51.138;6.008;2023-03-14T03:45:36;9.76;118.99
66312;HTU21D;53114;51.138;6.008;2023-03-14T03:48:06;9.76;118.99
66312;HTU21D;53114;51.138;6.008;2023-03-14T03:50:35;9.76;118.99
66312;HTU21D;53114;51.138;6.008;2023-03-14T03:53:04;9.66;118.99
66312;HTU21D;53114;51.138;6.008;2023-03-14T03:55:30;9.63;118.99
66312;HTU21D;53114;51.138;6.008;2023-03-14T03:57:57;9.60;118.99
66312;HTU21D;53114;51.138;6.008;2023-03-14T04:00:27;9.51;118.99
66312;HTU21D;53114;51.138;6.008;2023-03-14T04:02:53;9.48;118.99
66312;HTU21D;53114;51.138;6.008;2023-03-14T04:05:20;9.49;118.99
66312;HTU21D;53114;51.138;6.008;2023-03-14T04:08:03;9.48;118.99
66312;HTU21D;53114;51.138;6.008;2023-03-14T04:10:37;9.41;118.99
66312;HTU21D;53114;51.138;6.008;2023-03-14T04:13:17;9.47;118.99
66312;HTU21D;53114;51.138;6.008;2023-03-14T04:15:51;9.50;118.99
66312;HTU21D;53114;51.138;6.008;2023-03-14T04:18:32;9.50;118.99
66312;HTU21D;53114;51.138;6.008;2023-03-14T04:21:03;9.53;118.99
66312;HTU21D;53114;51.138;6.008;2023-03-14T04:23:45;9.59;118.99
66312;HTU21D;53114;51.138;6.008;2023-03-14T04:26:14;9.64;118.99
66312;HTU21D;53114;51.138;6.008;2023-03-14T04:28:43;9.66;118.99
66312;HTU21D;53114;51.138;6.008;2023-03-14T04:31:21;9.65;118.99
66312;HTU21D;53114;51.138;6.008;2023-03-14T04:33:50;9.70;118.99
66312;HTU21D;53114;51.138;6.008;2023-03-14T04:36:26;9.67;118.99
66312;HTU21D;53114;51.138;6.008;2023-03-14T04:38:55;9.62;118.99
66312;HTU21D;53114;51.138;6.008;2023-03-14T04:41:28;9.68;118.99
66312;HTU21D;53114;51.138;6.008;2023-03-14T04:44:18;9.67;118.99
66312;HTU21D;53114;51.138;6.008;2023-03-14T04:46:55;9.67;118.99
66312;HTU21D;53114;51.138;6.008;2023-03-14T04:49:31;9.74;118.99
66312;HTU21D;53114;51.138;6.008;2023-03-14T04:52:19;9.79;118.99
66312;HTU21D;53114;51.138;6.008;2023-03-14T04:54:46;9.83;118.99
66312;HTU21D;53114;51.138;6.008;2023-03-14T04:57:21;9.80;118.99
66312;HTU21D;53114;51.138;6.008;2023-03-14T05:00:11;9.82;118.99
66312;HTU21D;53114;51.138;6.008;2023-03-14T05:03:05;9.66;118.99
66312;HTU21D;53114;51.138;6.008;2023-03-14T05:05:54;9.74;118.99
66312;HTU21D;53114;51.138;6.008;2023-03-14T05:08:37;9.68;118.99
66312;HTU21D;53114;51.138;6.008;2023-03-14T05:11:42;9.74;118.99
66312;HTU21D;53114;51.138;6.008;2023-03-14T05:14:28;9.77;118.99
66312;HTU21D;53114;51.138;6.008;2023-03-14T05:17:03;9.82;118.99
66312;HTU21D;53114;51.138;6.008;2023-03-14T05:19:57;9.82;118.99
66312;HTU21D;53114;51.138;6.008;2023-03-14T05:22:51;9.84;118.99
66312;HTU21D;53114;51.138;6.008;2023-03-14T05:25:43;9.92;118.99
66312;HTU21D;53114;51.138;6.008;2023-03-14T05:28:34;9.91;118.99
66312;HTU21D;53114;51.138;6.008;2023-03-14T05:31:38;9.83;118.99
66312;HTU21D;53114;51.138;6.008;2023-03-14T05:34:28;9.77;118.99
66312;HTU21D;53114;51.138;6.008;2023-03-14T05:37:15;9.82;118.99
66312;HTU21D;53114;51.138;6.008;2023-03-14T05:40:04;9.76;118.99
66312;HTU21D;53114;51.138;6.008;2023-03-14T05:42:46;9.70;118.99
66312;HTU21D;53114;51.138;6.008;2023-03-14T05:45:33;9.78;118.99
66312;HTU21D;53114;51.138;6.008;2023-03-14T05:48:32;9.86;118.99
66312;HTU21D;53114;51.138;6.008;2023-03-14T05:51:53;9.84;118.99
66312;HTU21D;53114;51.138;6.008;2023-03-14T05:54:44;9.85;118.99
66312;HTU21D;53114;51.138;6.008;2023-03-14T05:57:31;9.88;118.99
66312;HTU21D;53114;51.138;6.008;2023-03-14T06:00:43;9.83;118.99
66312;HTU21D;53114;51.138;6.008;2023-03-14T06:03:39;9.79;118.99
66312;HTU21D;53114;51.138;6.008;2023-03-14T06:06:08;9.83;118.99
66312;HTU21D;53114;51.138;6.008;2023-03-14T06:08:48;9.89;118.99
66312;HTU21D;53114;51.138;6.008;2023-03-14T06:11:17;9.85;118.99
66312;HTU21D;53114;51.138;6.008;2023-03-14T06:13:43;9.93;118.99
66312;HTU21D;53114;51.138;6.008;2023-03-14T06:16:26;9.97;118.99
66312;HTU21D;53114;51.138;6.008;2023-03-14T06:18:57;10.06;118.99
66312;HTU21D;53114;51.138;6.008;2023-03-14T06:21:49;10.06;118.99
66312;HTU21D;53114;51.138;6.008;2023-03-14T06:24:19;10.08;118.99
66312;HTU21D;53114;51.138;6.008;2023-03-14T06:27:00;10.07;118.99
66312;HTU21D;53114;51.138;6.008;2023-03-14T06:29:41;10.06;118.99
66312;HTU21D;53114;51.138;6.008;2023-03-14T06:32:07;10.09;118.99
66312;HTU21D;53114;51.138;6.008;2023-03-14T06:34:56;10.04;118.99
66312;HTU21D;53114;51.138;6.008;2023-03-14T06:37:28;10.11;118.99
66312;HTU21D;53114;51.138;6.008;2023-03-14T06:40:14;10.18;118.99
66312;HTU21D;53114;51.138;6.008;2023-03-14T06:43:21;10.22;118.99
66312;HTU21D;53114;51.138;6.008;2023-03-14T06:45:59;10.26;118.99
66312;HTU21D;53114;51.138;6.008;2023-03-14T06:48:33;10.26;118.99
66312;HTU21D;53114;51.138;6.008;2023-03-14T06:51:03;10.30;118.99
66312;HTU21D;53114;51.138;6.008;2023-03-14T06:53:37;10.29;118.99
66312;HTU21D;53114;51.138;6.008;2023-03-14T06:56:12;10.34;118.99
66312;HTU21D;53114;51.138;6.008;2023-03-14T06:58:50;10.30;118.99
66312;HTU21D;53114;51.138;6.008;2023-03-14T07:01:38;10.27;118.99
66312;HTU21D;53114;51.138;6.008;2023-03-14T07:04:20;10.29;118.99
66312;HTU21D;53114;51.138;6.008;2023-03-14T07:06:48;10.33;118.99
66312;HTU21D;53114;51.138;6.008;2023-03-14T07:09:21;10.34;118.99
66312;HTU21D;53114;51.138;6.008;2023-03-14T07:11:55;10.36;118.99
66312;HTU21D;53114;51.138;6.008;2023-03-14T07:14:23;10.48;118.99
66312;HTU21D;53114;51.138;6.008;2023-03-14T07:17:02;10.54;118.99
66312;HTU21D;53114;51.138;6.008;2023-03-14T07:19:29;10.59;118.99
66312;HTU21D;53114;51.138;6.008;2023-03-14T07:21:55;10.65;118.99
66312;HTU21D;53114;51.138;6.008;2023-03-14T07:24:26;10.68;118.99
66312;HTU21D;53114;51.138;6.008;2023-03-14T07:26:54;10.79;118.99
66312;HTU21D;53114;51.138;6.008;2023-03-14T07:29:38;10.79;118.99
66312;HTU21D;53114;51.138;6.008;2023-03-14T07:32:04;10.81;118.99
66312;HTU21D;53114;51.138;6.008;2023-03-14T07:34:33;10.83;118.99
66312;HTU21D;53114;51.138;6.008;2023-03-14T07:37:00;10.92;118.99
66312;HTU21D;53114;51.138;6.008;2023-03-14T07:39:34;10.95;118.99
66312;HTU21D;53114;51.138;6.008;2023-03-14T07:42:20;11.09;118.99
66312;HTU21D;53114;51.138;6.008;2023-03-14T07:45:08;11.18;118.99
66312;HTU21D;53114;51.138;6.008;2023-03-14T07:47:34;11.27;118.99
66312;HTU21D;53114;51.138;6.008;2023-03-14T07:50:06;11.28;118.99
66312;HTU21D;53114;51.138;6.008;2023-03-14T07:52:35;11.22;118.99
66312;HTU21D;53114;51.138;6.008;2023-03-14T07:55:04;11.24;118.99
66312;HTU21D;53114;51.138;6.008;2023-03-14T07:57:30;11.25;118.99
66312;HTU21D;53114;51.138;6.008;2023-03-14T08:00:02;11.25;118.99
66312;HTU21D;53114;51.138;6.008;2023-03-14T08:02:39;11.24;118.99
66312;HTU21D;53114;51.138;6.008;2023-03-14T08:05:06;11.14;118.99
66312;HTU21D;53114;51.138;6.008;2023-03-14T08:07:32;11.10;118.99
66312;HTU21D;53114;51.138;6.008;2023-03-14T08:09:58;11.09;118.99
66312;HTU21D;53114;51.138;6.008;2023-03-14T08:12:24;11.02;118.99
66312;HTU21D;53114;51.138;6.008;2023-03-14T08:14:50;11.00;118.99
66312;HTU21D;53114;51.138;6.008;2023-03-14T08:17:16;11.05;118.99
66312;HTU21D;53114;51.138;6.008;2023-03-14T08:19:50;11.03;118.99
66312;HTU21D;53114;51.138;6.008;2023-03-14T08:22:16;11.07;118.99
66312;HTU21D;53114;51.138;6.008;2023-03-14T08:24:42;11.05;118.99
66312;HTU21D;53114;51.138;6.008;2023-03-14T08:27:11;11.01;118.99
66312;HTU21D;53114;51.138;6.008;2023-03-14T08:29:46;10.64;118.99
66312;HTU21D;53114;51.138;6.008;2023-03-14T08:32:17;10.38;118.99
66312;HTU21D;53114;51.138;6.008;2023-03-14T08:34:48;10.21;118.99
66312;HTU21D;53114;51.138;6.008;2023-03-14T08:37:17;10.13;118.99
66312;HTU21D;53114;51.138;6.008;2023-03-14T08:39:50;10.01;118.99
66312;HTU21D;53114;51.138;6.008;2023-03-14T08:42:22;9.75;118.99
66312;HTU21D;53114;51.138;6.008;2023-03-14T08:44:51;9.61;118.99
66312;HTU21D;53114;51.138;6.008;2023-03-14T08:47:18;9.41;118.99
66312;HTU21D;53114;51.138;6.008;2023-03-14T08:49:46;9.24;118.99
66312;HTU21D;53114;51.138;6.008;2023-03-14T08:52:12;9.19;118.99
66312;HTU21D;53114;51.138;6.008;2023-03-14T08:54:44;9.14;118.99
66312;HTU21D;53114;51.138;6.008;2023-03-14T08:57:15;9.12;118.99
66312;HTU21D;53114;51.138;6.008;2023-03-14T08:59:41;9.04;118.99
66312;HTU21D;53114;51.138;6.008;2023-03-14T09:02:12;9.03;118.99
66312;HTU21D;53114;51.138;6.008;2023-03-14T09:04:41;8.98;118.99
66312;HTU21D;53114;51.138;6.008;2023-03-14T09:07:10;8.87;118.99
66312;HTU21D;53114;51.138;6.008;2023-03-14T09:09:40;8.85;118.99
66312;HTU21D;53114;51.138;6.008;2023-03-14T09:12:11;8.85;118.99
66312;HTU21D;53114;51.138;6.008;2023-03-14T09:14:48;8.83;118.99
66312;HTU21D;53114;51.138;6.008;2023-03-14T09:17:27;8.86;118.99
66312;HTU21D;53114;51.138;6.008;2023-03-14T09:19:53;8.82;118.99
66312;HTU21D;53114;51.138;6.008;2023-03-14T09:22:24;8.77;118.99
66312;HTU21D;53114;51.138;6.008;2023-03-14T09:25:10;8.77;118.99
66312;HTU21D;53114;51.138;6.008;2023-03-14T09:27:37;8.85;118.99
66312;HTU21D;53114;51.138;6.008;2023-03-14T09:30:11;8.92;118.99
66312;HTU21D;53114;51.138;6.008;2023-03-14T09:32:40;9.00;118.99
66312;HTU21D;53114;51.138;6.008;2023-03-14T09:35:09;9.03;118.99
66312;HTU21D;53114;51.138;6.008;2023-03-14T09:37:38;9.08;118.99
66312;HTU21D;53114;51.138;6.008;2023-03-14T09:40:15;9.10;118.99
66312;HTU21D;53114;51.138;6.008;2023-03-14T09:42:44;9.09;118.99
66312;HTU21D;53114;51.138;6.008;2023-03-14T09:47:58;8.97;118.99
66312;HTU21D;53114;51.138;6.008;2023-03-14T09:50:40;8.95;118.99
66312;HTU21D;53114;51.138;6.008;2023-03-14T09:53:37;8.92;118.99
66312;HTU21D;53114;51.138;6.008;2023-03-14T09:56:32;8.86;118.99
66312;HTU21D;53114;51.138;6.008;2023-03-14T09:59:05;8.90;118.99
66312;HTU21D;53114;51.138;6.008;2023-03-14T10:01:39;8.91;118.99
66312;HTU21D;53114;51.138;6.008;2023-03-14T10:04:21;9.01;118.99
66312;HTU21D;53114;51.138;6.008;2023-03-14T10:06:54;9.15;118.99
66312;HTU21D;53114;51.138;6.008;2023-03-14T10:09:30;9.67;118.99
66312;HTU21D;53114;51.138;6.008;2023-03-14T10:11:57;10.31;118.99
66312;HTU21D;53114;51.138;6.008;2023-03-14T10:14:47;10.55;118.99
66312;HTU21D;53114;51.138;6.008;2023-03-14T10:17:19;10.56;118.99
66312;HTU21D;53114;51.138;6.008;2023-03-14T10:19:57;10.46;118.99
66312;HTU21D;53114;51.138;6.008;2023-03-14T10:22:32;10.36;118.99
66312;HTU21D;53114;51.138;6.008;2023-03-14T10:25:05;10.25;118.99
66312;HTU21D;53114;51.138;6.008;2023-03-14T10:27:35;10.14;118.99
66312;HTU21D;53114;51.138;6.008;2023-03-14T10:30:07;10.37;118.99
66312;HTU21D;53114;51.138;6.008;2023-03-14T10:32:37;10.38;118.99
66312;HTU21D;53114;51.138;6.008;2023-03-14T10:37:58;10.13;118.99
66312;HTU21D;53114;51.138;6.008;2023-03-14T10:40:34;10.09;118.99
66312;HTU21D;53114;51.138;6.008;2023-03-14T10:43:13;9.91;118.99
66312;HTU21D;53114;51.138;6.008;2023-03-14T10:45:51;9.65;118.99
66312;HTU21D;53114;51.138;6.008;2023-03-14T10:48:40;9.33;118.99
66312;HTU21D;53114;51.138;6.008;2023-03-14T10:53:47;8.60;118.99
66312;HTU21D;53114;51.138;6.008;2023-03-14T10:56:16;8.36;118.99
66312;HTU21D;53114;51.138;6.008;2023-03-14T10:58:50;8.32;118.99
66312;HTU21D;53114;51.138;6.008;2023-03-14T11:02:07;8.37;118.99
66312;HTU21D;53114;51.138;6.008;2023-03-14T11:04:49;8.48;118.99
66312;HTU21D;53114;51.138;6.008;2023-03-14T11:07:39;8.56;118.99
66312;HTU21D;53114;51.138;6.008;2023-03-14T11:10:27;8.65;118.99
66312;HTU21D;53114;51.138;6.008;2023-03-14T11:13:50;8.76;118.99
66312;HTU21D;53114;51.138;6.008;2023-03-14T11:16:42;8.85;118.99
66312;HTU21D;53114;51.138;6.008;2023-03-14T11:26:29;9.21;118.99
66312;HTU21D;53114;51.138;6.008;2023-03-14T11:29:18;8.92;118.99
66312;HTU21D;53114;51.138;6.008;2023-03-14T11:32:02;8.88;118.99
66312;HTU21D;53114;51.138;6.008;2023-03-14T11:37:47;9.01;118.99
66312;HTU21D;53114;51.138;6.008;2023-03-14T11:40:39;9.09;118.99
66312;HTU21D;53114;51.138;6.008;2023-03-14T11:43:32;9.17;118.99
66312;HTU21D;53114;51.138;6.008;2023-03-14T11:52:33;9.62;118.99
66312;HTU21D;53114;51.138;6.008;2023-03-14T11:55:23;10.89;118.99
66312;HTU21D;53114;51.138;6.008;2023-03-14T11:58:00;11.23;118.99
66312;HTU21D;53114;51.138;6.008;2023-03-14T12:00:39;11.49;118.99
66312;HTU21D;53114;51.138;6.008;2023-03-14T12:03:45;11.78;118.99
66312;HTU21D;53114;51.138;6.008;2023-03-14T12:09:09;12.53;118.72
66312;HTU21D;53114;51.138;6.008;2023-03-14T12:11:50;12.32;101.00
66312;HTU21D;53114;51.138;6.008;2023-03-14T12:14:31;11.96;116.63
66312;HTU21D;53114;51.138;6.008;2023-03-14T12:20:18;11.54;118.99
66312;HTU21D;53114;51.138;6.008;2023-03-14T12:22:50;11.41;117.54
66312;HTU21D;53114;51.138;6.008;2023-03-14T12:25:26;11.15;118.50
66312;HTU21D;53114;51.138;6.008;2023-03-14T12:35:48;11.12;118.99
66312;HTU21D;53114;51.138;6.008;2023-03-14T12:43:53;9.98;118.99
66312;HTU21D;53114;51.138;6.008;2023-03-14T12:46:27;9.68;118.99
66312;HTU21D;53114;51.138;6.008;2023-03-14T12:49:05;9.41;118.99
66312;HTU21D;53114;51.138;6.008;2023-03-14T12:51:42;9.03;118.99
66312;HTU21D;53114;51.138;6.008;2023-03-14T12:59:56;8.35;118.99
66312;HTU21D;53114;51.138;6.008;2023-03-14T13:05:20;8.34;118.99
66312;HTU21D;53114;51.138;6.008;2023-03-14T13:10:26;8.38;118.99
66312;HTU21D;53114;51.138;6.008;2023-03-14T13:12:56;8.37;118.99
66312;HTU21D;53114;51.138;6.008;2023-03-14T13:15:35;8.43;118.99
66312;HTU21D;53114;51.138;6.008;2023-03-14T13:18:14;8.59;118.99
66312;HTU21D;53114;51.138;6.008;2023-03-14T13:20:52;8.67;118.99
66312;HTU21D;53114;51.138;6.008;2023-03-14T13:23:27;8.61;118.99
66312;HTU21D;53114;51.138;6.008;2023-03-14T13:25:54;8.49;118.99
66312;HTU21D;53114;51.138;6.008;2023-03-14T13:28:30;8.44;118.99
66312;HTU21D;53114;51.138;6.008;2023-03-14T13:31:00;8.31;118.99
66312;HTU21D;53114;51.138;6.008;2023-03-14T13:33:29;8.29;118.99
66312;HTU21D;53114;51.138;6.008;2023-03-14T13:36:00;8.35;118.99
66312;HTU21D;53114;51.138;6.008;2023-03-14T13:38:36;8.47;118.99
66312;HTU21D;53114;51.138;6.008;2023-03-14T13:41:12;8.63;118.99
66312;HTU21D;53114;51.138;6.008;2023-03-14T13:43:43;8.91;118.99
66312;HTU21D;53114;51.138;6.008;2023-03-14T13:46:21;8.98;118.99
66312;HTU21D;53114;51.138;6.008;2023-03-14T13:48:59;9.16;118.99
66312;HTU21D;53114;51.138;6.008;2023-03-14T13:51:28;9.34;118.99
66312;HTU21D;53114;51.138;6.008;2023-03-14T13:53:57;9.48;118.99
66312;HTU21D;53114;51.138;6.008;2023-03-14T13:56:27;9.62;118.99
66312;HTU21D;53114;51.138;6.008;2023-03-14T13:58:56;9.68;118.99
66312;HTU21D;53114;51.138;6.008;2023-03-14T14:01:30;9.75;118.99
66312;HTU21D;53114;51.138;6.008;2023-03-14T14:04:01;9.76;118.99
66312;HTU21D;53114;51.138;6.008;2023-03-14T14:06:38;9.72;118.99
66312;HTU21D;53114;51.138;6.008;2023-03-14T14:09:17;9.71;118.99
66312;HTU21D;53114;51.138;6.008;2023-03-14T14:14:38;9.71;118.99
66312;HTU21D;53114;51.138;6.008;2023-03-14T14:17:09;9.77;118.99
66312;HTU21D;53114;51.138;6.008;2023-03-14T14:19:38;9.86;118.99
66312;HTU21D;53114;51.138;6.008;2023-03-14T14:22:05;9.95;118.99
66312;HTU21D;53114;51.138;6.008;2023-03-14T14:24:34;9.97;118.99
66312;HTU21D;53114;51.138;6.008;2023-03-14T14:27:14;10.00;118.99
66312;HTU21D;53114;51.138;6.008;2023-03-14T14:29:41;10.06;118.99
66312;HTU21D;53114;51.138;6.008;2023-03-14T14:34:56;10.03;118.99
66312;HTU21D;53114;51.138;6.008;2023-03-14T14:37:27;9.93;118.99
66312;HTU21D;53114;51.138;6.008;2023-03-14T14:39:57;9.90;118.99
66312;HTU21D;53114;51.138;6.008;2023-03-14T14:42:31;9.96;118.99
66312;HTU21D;53114;51.138;6.008;2023-03-14T14:44:58;10.01;118.99
66312;HTU21D;53114;51.138;6.008;2023-03-14T14:47:28;10.10;118.99
66312;HTU21D;53114;51.138;6.008;2023-03-14T14:50:00;10.13;118.99
66312;HTU21D;53114;51.138;6.008;2023-03-14T14:52:43;10.19;118.84
66312;HTU21D;53114;51.138;6.008;2023-03-14T14:55:18;10.20;118.40
66312;HTU21D;53114;51.138;6.008;2023-03-14T14:57:53;10.18;113.46
66312;HTU21D;53114;51.138;6.008;2023-03-14T15:00:23;10.11;103.30
66312;HTU21D;53114;51.138;6.008;2023-03-14T15:02:52;9.99;101.92
66312;HTU21D;53114;51.138;6.008;2023-03-14T15:05:25;9.89;96.01
66312;HTU21D;53114;51.138;6.008;2023-03-14T15:07:51;9.80;91.27
66312;HTU21D;53114;51.138;6.008;2023-03-14T15:10:20;9.72;90.73
66312;HTU21D;53114;51.138;6.008;2023-03-14T15:12:47;9.67;89.32
66312;HTU21D;53114;51.138;6.008;2023-03-14T15:15:15;9.63;85.81
66312;HTU21D;53114;51.138;6.008;2023-03-14T15:17:42;9.59;83.29
66312;HTU21D;53114;51.138;6.008;2023-03-14T15:20:17;9.52;79.33
66312;HTU21D;53114;51.138;6.008;2023-03-14T15:22:48;9.39;81.42
66312;HTU21D;53114;51.138;6.008;2023-03-14T15:25:17;9.34;82.52
66312;HTU21D;53114;51.138;6.008;2023-03-14T15:27:43;9.27;82.49
66312;HTU21D;53114;51.138;6.008;2023-03-14T15:30:12;9.27;82.48
66312;HTU21D;53114;51.138;6.008;2023-03-14T15:32:38;9.24;77.72
66312;HTU21D;53114;51.138;6.008;2023-03-14T15:35:05;9.19;68.32
66312;HTU21D;53114;51.138;6.008;2023-03-14T15:37:31;9.19;79.96
66312;HTU21D;53114;51.138;6.008;2023-03-14T15:39:57;9.19;81.27
66312;HTU21D;53114;51.138;6.008;2023-03-14T15:42:24;9.17;80.58
66312;HTU21D;53114;51.138;6.008;2023-03-14T15:44:50;9.17;80.40
66312;HTU21D;53114;51.138;6.008;2023-03-14T15:47:16;9.08;73.51
66312;HTU21D;53114;51.138;6.008;2023-03-14T15:49:42;9.02;77.20
66312;HTU21D;53114;51.138;6.008;2023-03-14T15:52:14;8.98;79.55
66312;HTU21D;53114;51.138;6.008;2023-03-14T15:54:42;8.93;78.90
66312;HTU21D;53114;51.138;6.008;2023-03-14T15:57:13;8.89;78.07
66312;HTU21D;53114;51.138;6.008;2023-03-14T15:59:42;8.89;78.91
66312;HTU21D;53114;51.138;6.008;2023-03-14T16:02:09;8.87;79.25
66312;HTU21D;53114;51.138;6.008;2023-03-14T16:04:38;8.87;78.50
66312;HTU21D;53114;51.138;6.008;2023-03-14T16:07:09;8.75;78.74
66312;HTU21D;53114;51.138;6.008;2023-03-14T16:09:36;8.64;78.85
66312;HTU21D;53114;51.138;6.008;2023-03-14T16:12:04;8.61;80.24
66312;HTU21D;53114;51.138;6.008;2023-03-14T16:14:32;8.59;81.13
66312;HTU21D;53114;51.138;6.008;2023-03-14T16:16:58;8.55;80.01
66312;HTU21D;53114;51.138;6.008;2023-03-14T16:19:25;8.50;79.47
66312;HTU21D;53114;51.138;6.008;2023-03-14T16:21:52;8.42;72.72
66312;HTU21D;53114;51.138;6.008;2023-03-14T16:24:19;8.37;76.76
66312;HTU21D;53114;51.138;6.008;2023-03-14T16:26:45;8.33;75.73
66312;HTU21D;53114;51.138;6.008;2023-03-14T16:29:13;8.27;76.60
66312;HTU21D;53114;51.138;6.008;2023-03-14T16:31:39;8.20;75.49
66312;HTU21D;53114;51.138;6.008;2023-03-14T16:34:08;8.15;74.57
66312;HTU21D;53114;51.138;6.008;2023-03-14T16:36:34;8.08;74.74
66312;HTU21D;53114;51.138;6.008;2023-03-14T16:39:01;8.11;74.95
66312;HTU21D;53114;51.138;6.008;2023-03-14T16:41:27;8.06;72.58
66312;HTU21D;53114;51.138;6.008;2023-03-14T16:44:00;7.97;70.64
66312;HTU21D;53114;51.138;6.008;2023-03-14T16:46:28;7.96;72.73
66312;HTU21D;53114;51.138;6.008;2023-03-14T16:48:57;7.89;73.08
66312;HTU21D;53114;51.138;6.008;2023-03-14T16:51:28;7.84;73.21
66312;HTU21D;53114;51.138;6.008;2023-03-14T16:54:00;7.81;73.09
66312;HTU21D;53114;51.138;6.008;2023-03-14T16:56:31;7.76;72.58
66312;HTU21D;53114;51.138;6.008;2023-03-14T16:59:00;7.70;71.83